Duckwater, Nevada
Current Conditions -  °F | °C
As of 2:53 PM on Tuesday 27 Jan 2015 (Local Time) from KELY Reporting Station
Light Rain Light Rain  
Wind Chill: 35°   Ceiling: 4500
Heat Index: 43°   Visibility: 10mi
Dew Point: 36°   Wind: 18mph
Humidity: 76%   Direction: 150°SSE
Pressure: 30.19"   Gusts: NA
Location:  38.89°N, 115.68°W
Report Text: KELY 272253Z AUTO 15016KT 10SM -RA FEW030 BKN045 OVC070 06/02 A3019 RMK AO2 RAB20 SLP194 P0000 T00610022
Loading
Personal Weather Stations






























Interactive Weather Map New forecast layout! Learn more

10-Day Weather Forecast

Advertisements
Track Severe Weather on mobile